createdAt,value
2022-09-17T00:01:39.484Z,9.00
2022-09-17T00:04:09.087Z,6.50
2022-09-17T00:06:37.639Z,5.30
2022-09-17T00:09:08.043Z,8.90
2022-09-17T00:11:39.897Z,12.57
2022-09-17T00:14:13.449Z,5.63
2022-09-17T00:16:45.204Z,9.63
2022-09-17T00:19:18.637Z,7.10
2022-09-17T00:21:47.481Z,4.20
2022-09-17T00:24:17.965Z,5.13
2022-09-17T00:26:46.192Z,4.27
2022-09-17T00:29:15.095Z,6.60
2022-09-17T00:31:43.777Z,8.43
2022-09-17T00:34:12.473Z,6.47
2022-09-17T00:36:42.071Z,10.33
2022-09-17T00:39:13.027Z,6.40
2022-09-17T00:41:41.168Z,6.03
2022-09-17T00:44:46.018Z,7.13
2022-09-17T00:47:27.994Z,6.07
2022-09-17T00:50:05.387Z,9.50
2022-09-17T00:52:41.283Z,7.33
2022-09-17T00:55:18.839Z,5.80
2022-09-17T00:57:47.645Z,6.80
2022-09-17T01:00:17.824Z,7.90
2022-09-17T01:02:46.546Z,9.37
2022-09-17T01:05:16.991Z,7.77
2022-09-17T01:08:13.933Z,10.00
2022-09-17T01:11:06.527Z,7.07
2022-09-17T01:13:49.547Z,6.67
2022-09-17T01:16:30.789Z,7.10
2022-09-17T01:19:22.193Z,8.20
2022-09-17T01:22:04.731Z,6.37
2022-09-17T01:25:08.154Z,9.57
2022-09-17T01:28:19.616Z,5.13
2022-09-17T01:31:36.155Z,4.57
2022-09-17T01:34:18.145Z,8.73
2022-09-17T01:37:03.475Z,5.23
2022-09-17T01:39:46.408Z,7.43
2022-09-17T01:42:25.784Z,6.40
2022-09-17T01:45:04.388Z,7.70
2022-09-17T01:47:39.742Z,8.80
2022-09-17T01:50:13.977Z,5.83
2022-09-17T01:52:46.581Z,5.33
2022-09-17T01:55:19.000Z,7.53
2022-09-17T01:57:53.768Z,9.53
2022-09-17T02:00:22.208Z,10.77
2022-09-17T02:03:00.721Z,12.27
2022-09-17T02:05:35.582Z,4.47
2022-09-17T02:08:12.110Z,8.03
2022-09-17T02:10:46.489Z,4.40
2022-09-17T02:13:23.001Z,5.70
2022-09-17T02:15:58.486Z,9.67
2022-09-17T02:18:37.589Z,8.03
2022-09-17T02:21:15.731Z,7.17
2022-09-17T02:23:54.268Z,6.53
2022-09-17T02:26:25.007Z,6.53
2022-09-17T02:29:00.040Z,5.30
2022-09-17T02:31:28.150Z,8.70
2022-09-17T02:34:04.593Z,13.83
2022-09-17T02:36:35.202Z,3.73
2022-09-17T02:39:05.424Z,7.00
2022-09-17T02:41:51.082Z,8.40
2022-09-17T02:44:33.364Z,8.83
2022-09-17T02:47:25.285Z,10.30
2022-09-17T02:50:17.744Z,10.87
2022-09-17T02:53:03.735Z,6.10
2022-09-17T02:55:42.648Z,5.90
2022-09-17T02:58:25.684Z,9.03
2022-09-17T03:00:56.738Z,10.10
2022-09-17T03:03:33.169Z,9.47
2022-09-17T03:06:03.108Z,12.83
2022-09-17T03:08:36.669Z,16.27
2022-09-17T03:11:05.531Z,7.40
2022-09-17T03:13:35.041Z,7.40
2022-09-17T03:16:03.802Z,8.37
2022-09-17T03:18:32.218Z,14.03
2022-09-17T03:21:00.355Z,15.97
2022-09-17T03:23:29.947Z,7.77
2022-09-17T03:25:58.213Z,10.63
2022-09-17T03:28:26.716Z,9.73
2022-09-17T03:30:55.421Z,10.73
2022-09-17T03:33:23.643Z,7.50
2022-09-17T03:35:52.031Z,8.20
2022-09-17T03:38:20.005Z,12.13
2022-09-17T03:41:00.684Z,7.63
2022-09-17T03:43:29.594Z,10.70
2022-09-17T03:45:57.760Z,7.00
2022-09-17T03:48:25.989Z,8.90
2022-09-17T03:50:54.001Z,9.80
2022-09-17T03:53:22.099Z,14.23
2022-09-17T03:55:50.158Z,8.70
2022-09-17T03:58:19.603Z,10.53
2022-09-17T04:00:53.096Z,9.20
2022-09-17T04:03:22.281Z,9.13
2022-09-17T04:05:50.481Z,9.70
2022-09-17T04:08:19.459Z,9.17
2022-09-17T04:10:48.604Z,12.00
2022-09-17T04:13:19.881Z,6.57
2022-09-17T04:15:49.100Z,7.53
2022-09-17T04:18:17.379Z,11.13
2022-09-17T04:20:45.490Z,11.33
2022-09-17T04:23:14.670Z,9.53
2022-09-17T04:25:43.480Z,12.00
2022-09-17T04:28:11.586Z,9.33
2022-09-17T04:30:42.872Z,10.80
2022-09-17T04:33:11.426Z,8.30
2022-09-17T04:35:39.447Z,10.23
2022-09-17T04:38:07.670Z,9.87
2022-09-17T04:40:36.049Z,11.30
2022-09-17T04:43:04.182Z,15.33
2022-09-17T04:45:33.671Z,9.30
2022-09-17T04:48:04.167Z,7.97
2022-09-17T04:50:32.891Z,7.13
2022-09-17T04:53:00.908Z,6.33
2022-09-17T04:55:28.979Z,9.23
2022-09-17T04:57:57.053Z,8.60
2022-09-17T05:00:25.852Z,7.17
2022-09-17T05:02:56.501Z,7.17
2022-09-17T05:05:26.380Z,10.97
2022-09-17T05:07:54.755Z,7.63
2022-09-17T05:10:24.635Z,7.63
2022-09-17T05:12:54.330Z,12.47
2022-09-17T05:15:24.166Z,9.17
2022-09-17T05:17:52.361Z,11.03
2022-09-17T05:20:20.492Z,10.13
2022-09-17T05:22:53.014Z,8.20
2022-09-17T05:25:24.860Z,7.20
2022-09-17T05:27:54.789Z,10.93
2022-09-17T05:30:23.326Z,13.67
2022-09-17T05:32:59.990Z,16.20
2022-09-17T05:35:28.435Z,13.57
2022-09-17T05:38:03.057Z,23.73
2022-09-17T05:40:32.780Z,11.00
2022-09-17T05:43:02.489Z,12.03
2022-09-17T05:45:31.251Z,9.40
2022-09-17T05:48:03.007Z,6.57
2022-09-17T05:50:32.258Z,10.80
2022-09-17T05:53:07.840Z,9.30
2022-09-17T05:55:36.521Z,7.07
2022-09-17T05:58:12.301Z,9.10
2022-09-17T06:00:41.118Z,7.07
2022-09-17T06:03:11.675Z,16.77
2022-09-17T06:05:39.965Z,9.13
2022-09-17T06:08:10.272Z,9.47
2022-09-17T06:10:38.852Z,11.00
2022-09-17T06:13:07.365Z,8.73
2022-09-17T06:15:37.816Z,9.03
2022-09-17T06:18:06.039Z,11.43
2022-09-17T06:20:34.758Z,13.77
2022-09-17T06:23:02.827Z,8.57
2022-09-17T06:25:32.727Z,13.07
2022-09-17T06:28:03.634Z,11.97
2022-09-17T06:30:31.666Z,9.00
2022-09-17T06:33:02.456Z,9.60
2022-09-17T06:35:30.648Z,9.17
2022-09-17T06:37:58.874Z,15.13
2022-09-17T06:40:27.017Z,9.83
2022-09-17T06:43:00.595Z,9.80
2022-09-17T06:45:29.298Z,8.70
2022-09-17T06:47:57.554Z,10.50
2022-09-17T06:50:26.112Z,6.23
2022-09-17T06:52:56.134Z,8.50
2022-09-17T06:55:24.175Z,10.97
2022-09-17T06:57:52.537Z,5.90
2022-09-17T07:00:22.061Z,13.57
2022-09-17T07:02:57.847Z,6.87
2022-09-17T07:05:27.180Z,11.77
2022-09-17T07:07:56.402Z,7.67
2022-09-17T07:10:24.605Z,11.73
2022-09-17T07:12:52.687Z,7.97
2022-09-17T07:15:22.710Z,6.00
2022-09-17T07:17:51.475Z,10.87
2022-09-17T07:20:19.896Z,12.63
2022-09-17T07:22:56.331Z,9.77
2022-09-17T07:25:24.573Z,14.33
2022-09-17T07:27:52.742Z,11.93
2022-09-17T07:30:22.648Z,8.97
2022-09-17T07:32:50.786Z,11.93
2022-09-17T07:35:18.925Z,7.23
2022-09-17T07:37:47.228Z,8.80
2022-09-17T07:40:15.443Z,7.27
2022-09-17T07:42:43.612Z,14.67
2022-09-17T07:45:12.202Z,11.17
2022-09-17T07:47:42.346Z,12.00
2022-09-17T07:50:11.269Z,10.37
2022-09-17T07:52:39.623Z,13.57
2022-09-17T07:55:08.893Z,9.03
2022-09-17T07:57:36.911Z,8.73
2022-09-17T08:00:06.587Z,7.63
2022-09-17T08:02:34.810Z,9.30
2022-09-17T08:05:04.776Z,7.33
2022-09-17T08:07:33.014Z,19.53
2022-09-17T08:10:01.964Z,6.40
2022-09-17T08:12:30.001Z,11.23
2022-09-17T08:14:58.024Z,6.80
2022-09-17T08:17:26.055Z,7.90
2022-09-17T08:19:54.473Z,5.80
2022-09-17T08:22:23.899Z,8.23
2022-09-17T08:24:51.858Z,15.07
2022-09-17T08:27:20.049Z,8.50
2022-09-17T08:29:48.093Z,6.40
2022-09-17T08:32:16.184Z,11.67
2022-09-17T08:34:44.448Z,21.97
2022-09-17T08:37:12.562Z,13.87
2022-09-17T08:39:42.062Z,15.40
2022-09-17T08:42:21.706Z,12.10
2022-09-17T08:44:52.091Z,19.77
2022-09-17T08:47:28.390Z,14.40
2022-09-17T08:49:59.907Z,13.73
2022-09-17T08:53:18.186Z,13.67
2022-09-17T08:55:54.639Z,13.27
2022-09-17T08:58:46.964Z,9.97
2022-09-17T09:01:35.679Z,14.23
2022-09-17T09:04:29.553Z,19.63
2022-09-17T09:07:07.713Z,11.33
2022-09-17T09:09:42.798Z,9.37
2022-09-17T09:12:26.721Z,12.43
2022-09-17T09:15:01.658Z,11.90
2022-09-17T09:17:42.901Z,12.20
2022-09-17T09:20:20.597Z,16.50
2022-09-17T09:22:52.075Z,14.53
2022-09-17T09:25:24.916Z,13.13
2022-09-17T09:28:12.070Z,11.93
2022-09-17T09:30:59.442Z,12.27
2022-09-17T09:33:32.980Z,16.63
2022-09-17T09:36:01.337Z,13.73
2022-09-17T09:38:36.646Z,12.57
2022-09-17T09:41:12.566Z,10.90
2022-09-17T09:44:03.292Z,14.03
2022-09-17T09:47:20.108Z,17.00
2022-09-17T09:50:09.817Z,11.50
2022-09-17T09:53:07.314Z,15.37
2022-09-17T09:55:59.763Z,12.93
2022-09-17T09:58:36.264Z,15.33
2022-09-17T10:01:14.053Z,12.93
2022-09-17T10:03:46.040Z,15.70
2022-09-17T10:06:17.156Z,10.23
2022-09-17T10:09:15.019Z,9.77
2022-09-17T10:11:44.160Z,12.23
2022-09-17T10:14:25.859Z,13.07
2022-09-17T10:17:16.637Z,13.97
2022-09-17T10:19:46.767Z,8.63
2022-09-17T10:22:38.512Z,9.70
2022-09-17T10:25:24.047Z,10.43
2022-09-17T10:27:52.570Z,11.83
2022-09-17T10:30:21.071Z,14.87
2022-09-17T10:33:18.769Z,10.40
2022-09-17T10:36:01.280Z,11.93
2022-09-17T10:38:36.794Z,13.27
2022-09-17T10:41:21.786Z,9.13
2022-09-17T10:43:50.775Z,10.70
2022-09-17T10:46:28.013Z,14.50
2022-09-17T10:49:12.990Z,8.47
2022-09-17T10:51:41.528Z,9.40
2022-09-17T10:54:44.745Z,10.33
2022-09-17T10:57:24.691Z,6.87
2022-09-17T11:00:10.798Z,9.30
2022-09-17T11:03:28.423Z,11.97
2022-09-17T11:06:21.660Z,8.77
2022-09-17T11:09:05.835Z,10.20
2022-09-17T11:11:54.147Z,17.90
2022-09-17T11:14:50.524Z,7.53
2022-09-17T11:17:46.915Z,11.53
2022-09-17T11:20:40.014Z,11.47
2022-09-17T11:23:41.227Z,8.33
2022-09-17T11:26:28.571Z,11.10
2022-09-17T11:29:14.943Z,7.00
2022-09-17T11:31:59.839Z,9.70
2022-09-17T11:34:34.974Z,9.97
2022-09-17T11:37:13.442Z,13.47
2022-09-17T11:39:50.261Z,10.77
2022-09-17T11:42:24.198Z,12.17
2022-09-17T11:45:00.128Z,7.40
2022-09-17T11:47:37.006Z,8.57
2022-09-17T11:50:18.761Z,7.47
2022-09-17T11:53:02.781Z,8.27
2022-09-17T11:55:43.697Z,6.60
2022-09-17T11:58:22.572Z,9.43
2022-09-17T12:00:59.368Z,16.10
2022-09-17T12:03:35.548Z,12.43
2022-09-17T12:06:12.908Z,10.27
2022-09-17T12:08:54.889Z,12.73
2022-09-17T12:11:34.477Z,9.20
2022-09-17T12:14:10.915Z,11.30
2022-09-17T12:16:43.618Z,14.67
2022-09-17T12:19:22.463Z,9.23
2022-09-17T12:21:55.484Z,11.10
2022-09-17T12:24:26.319Z,7.40
2022-09-17T12:27:14.171Z,6.40
2022-09-17T12:30:11.807Z,8.83
2022-09-17T12:33:11.196Z,7.10
2022-09-17T12:36:09.017Z,9.23
2022-09-17T12:39:15.722Z,8.10
2022-09-17T12:41:57.751Z,8.90
2022-09-17T12:44:56.292Z,9.27
2022-09-17T12:48:10.064Z,9.50
2022-09-17T12:50:56.242Z,10.00
2022-09-17T12:53:31.716Z,7.87
2022-09-17T12:56:17.020Z,7.33
2022-09-17T12:59:11.508Z,9.30
2022-09-17T13:01:52.082Z,8.53
2022-09-17T13:05:02.045Z,8.10
2022-09-17T13:08:03.702Z,7.47
2022-09-17T13:11:16.650Z,6.67
2022-09-17T13:13:54.629Z,5.97
2022-09-17T13:16:36.980Z,7.53
2022-09-17T13:19:25.833Z,9.10
2022-09-17T13:22:00.603Z,5.57
2022-09-17T13:24:31.707Z,8.17
2022-09-17T13:27:05.487Z,7.97
2022-09-17T13:30:01.937Z,7.13
2022-09-17T13:32:51.547Z,8.00
2022-09-17T13:35:52.599Z,5.10
2022-09-17T13:38:24.462Z,4.20
2022-09-17T13:40:53.913Z,5.70
2022-09-17T13:43:28.082Z,10.03
2022-09-17T13:46:17.773Z,9.43
2022-09-17T13:48:54.283Z,4.13
2022-09-17T13:51:54.034Z,6.73
2022-09-17T13:54:25.735Z,5.53
2022-09-17T13:57:15.667Z,6.37
2022-09-17T13:59:59.072Z,3.27
2022-09-17T14:02:36.155Z,3.93
2022-09-17T14:05:41.028Z,9.67
2022-09-17T14:08:32.350Z,7.30
2022-09-17T14:11:05.770Z,5.03
2022-09-17T14:13:45.934Z,3.60
2022-09-17T14:16:47.078Z,5.37
2022-09-17T14:19:30.587Z,7.97
2022-09-17T14:22:16.002Z,4.20
2022-09-17T14:24:54.715Z,6.30
2022-09-17T14:27:51.673Z,4.90
2022-09-17T14:30:22.905Z,5.13
2022-09-17T14:33:03.954Z,5.63
2022-09-17T14:35:38.086Z,5.67
2022-09-17T14:38:16.300Z,8.53
2022-09-17T14:40:49.733Z,5.83
2022-09-17T14:43:28.396Z,6.93
2022-09-17T14:45:58.358Z,7.80
2022-09-17T14:48:33.267Z,3.87
2022-09-17T14:51:30.240Z,6.23
2022-09-17T14:54:22.008Z,3.77
2022-09-17T14:56:58.453Z,7.33
2022-09-17T14:59:54.990Z,6.73
2022-09-17T15:02:30.834Z,4.27
2022-09-17T15:05:00.189Z,5.33
2022-09-17T15:07:28.925Z,4.83
2022-09-17T15:10:14.427Z,6.60
2022-09-17T15:12:46.383Z,6.40
2022-09-17T15:15:22.832Z,10.93
2022-09-17T15:17:53.348Z,7.60
2022-09-17T15:20:25.284Z,3.57
2022-09-17T15:23:06.066Z,4.47
2022-09-17T15:25:37.916Z,2.53
2022-09-17T15:28:26.917Z,2.30
2022-09-17T15:30:55.105Z,4.20
2022-09-17T15:33:24.697Z,2.67
2022-09-17T15:36:20.433Z,3.10
2022-09-17T15:38:49.466Z,5.67
2022-09-17T15:41:30.144Z,6.37
2022-09-17T15:44:29.848Z,6.17
2022-09-17T15:47:48.418Z,4.87
2022-09-17T15:50:20.217Z,6.53
2022-09-17T15:52:51.714Z,7.50
2022-09-17T15:55:37.020Z,12.43
2022-09-17T15:58:20.473Z,6.37
2022-09-17T16:01:51.031Z,10.93
2022-09-17T16:04:26.851Z,7.20
2022-09-17T16:07:01.712Z,9.03
2022-09-17T16:09:49.025Z,7.10
2022-09-17T16:12:20.712Z,7.47
2022-09-17T16:14:54.696Z,8.93
2022-09-17T16:17:35.720Z,8.40
2022-09-17T16:20:14.063Z,8.30
2022-09-17T16:22:42.626Z,7.80
2022-09-17T16:25:11.357Z,36.47
2022-09-17T16:27:51.737Z,32.73
2022-09-17T16:30:22.783Z,49.87
2022-09-17T16:32:53.711Z,21.47
2022-09-17T16:35:24.524Z,11.30
2022-09-17T16:37:54.640Z,10.07
2022-09-17T16:40:28.162Z,8.00
2022-09-17T16:42:57.094Z,9.53
2022-09-17T16:45:28.802Z,22.27
2022-09-17T16:47:59.354Z,6.23
2022-09-17T16:50:28.189Z,7.33
2022-09-17T16:52:56.268Z,6.10
2022-09-17T16:55:24.717Z,10.90
2022-09-17T16:57:52.906Z,7.07
2022-09-17T17:00:22.646Z,7.60
2022-09-17T17:02:56.173Z,6.53
2022-09-17T17:05:27.846Z,5.57
2022-09-17T17:07:56.131Z,3.83
2022-09-17T17:10:26.482Z,8.03
2022-09-17T17:12:54.705Z,4.50
2022-09-17T17:15:23.624Z,3.77
2022-09-17T17:17:52.532Z,2.33
2022-09-17T17:20:20.918Z,2.63
2022-09-17T17:22:52.894Z,5.07
2022-09-17T17:25:21.100Z,6.40
2022-09-17T17:27:49.367Z,5.93
2022-09-17T17:30:18.317Z,7.27
2022-09-17T17:32:51.203Z,4.60
2022-09-17T17:35:20.006Z,5.13
2022-09-17T17:37:48.514Z,3.27
2022-09-17T17:40:18.187Z,2.87
2022-09-17T17:42:47.431Z,2.70
2022-09-17T17:45:16.007Z,1.77
2022-09-17T17:47:44.055Z,1.33
2022-09-17T17:50:12.370Z,1.47
2022-09-17T17:52:43.404Z,1.17
2022-09-17T17:55:12.689Z,1.53
2022-09-17T17:57:42.293Z,0.93
2022-09-17T18:00:12.579Z,1.03
2022-09-17T18:02:41.062Z,0.63
2022-09-17T18:05:11.667Z,0.80
2022-09-17T18:07:39.753Z,1.70
2022-09-17T18:10:08.972Z,1.30
2022-09-17T18:12:37.705Z,1.80
2022-09-17T18:15:08.914Z,1.17
2022-09-17T18:17:37.046Z,2.13
2022-09-17T18:20:06.854Z,3.90
2022-09-17T18:22:34.933Z,1.17
2022-09-17T18:25:03.163Z,2.43
2022-09-17T18:27:31.348Z,1.37
2022-09-17T18:29:59.401Z,2.87
2022-09-17T18:32:29.105Z,1.33
2022-09-17T18:34:57.100Z,3.50
2022-09-17T18:37:25.478Z,1.57
2022-09-17T18:39:58.589Z,1.40
2022-09-17T18:42:27.483Z,4.23
2022-09-17T18:44:55.586Z,3.87
2022-09-17T18:47:23.695Z,2.83
2022-09-17T18:49:53.132Z,1.70
2022-09-17T18:52:21.371Z,3.33
2022-09-17T18:54:49.506Z,4.77
2022-09-17T18:57:17.613Z,2.70
2022-09-17T18:59:45.609Z,1.30
2022-09-17T19:02:14.304Z,2.37
2022-09-17T19:04:42.362Z,4.73
2022-09-17T19:07:11.845Z,3.70
2022-09-17T19:09:40.114Z,1.73
2022-09-17T19:12:08.248Z,2.33
2022-09-17T19:14:36.299Z,1.43
2022-09-17T19:17:04.528Z,2.90
2022-09-17T19:19:32.767Z,3.00
2022-09-17T19:22:00.816Z,5.57
2022-09-17T19:24:30.342Z,2.83
2022-09-17T19:26:58.793Z,4.10
2022-09-17T19:29:28.070Z,2.90
2022-09-17T19:31:56.345Z,6.77
2022-09-17T19:34:24.663Z,2.73
2022-09-17T19:36:52.913Z,2.73
2022-09-17T19:39:20.949Z,4.20
2022-09-17T19:41:50.474Z,3.10
2022-09-17T19:44:18.688Z,1.37
2022-09-17T19:46:48.415Z,2.97
2022-09-17T19:49:16.618Z,4.03
2022-09-17T19:51:44.845Z,2.90
2022-09-17T19:54:13.269Z,2.57
2022-09-17T19:56:41.373Z,1.80
2022-09-17T19:59:11.443Z,1.80
2022-09-17T20:01:39.535Z,3.30
2022-09-17T20:04:08.031Z,2.43
2022-09-17T20:06:36.567Z,1.57
2022-09-17T20:09:04.889Z,3.17
2022-09-17T20:11:33.899Z,4.23
2022-09-17T20:14:06.505Z,11.30
2022-09-17T20:16:38.447Z,23.73
2022-09-17T20:19:08.037Z,12.67
2022-09-17T20:21:36.280Z,10.07
2022-09-17T20:24:07.323Z,11.60
2022-09-17T20:26:36.218Z,8.30
2022-09-17T20:29:04.788Z,8.80
2022-09-17T20:31:35.273Z,6.00
2022-09-17T20:34:05.137Z,4.37
2022-09-17T20:36:36.055Z,9.03
2022-09-17T20:39:19.506Z,3.73
2022-09-17T20:41:51.282Z,3.20
2022-09-17T20:44:20.324Z,3.67
2022-09-17T20:46:49.870Z,3.63
2022-09-17T20:49:18.533Z,3.27
2022-09-17T20:51:46.761Z,4.10
2022-09-17T20:54:15.496Z,5.00
2022-09-17T20:56:43.697Z,2.80
2022-09-17T20:59:17.766Z,2.50
2022-09-17T21:01:49.356Z,2.33
2022-09-17T21:04:21.854Z,2.77
2022-09-17T21:06:54.409Z,2.20
2022-09-17T21:09:22.496Z,2.67
2022-09-17T21:11:51.183Z,4.00
2022-09-17T21:14:20.630Z,2.67
2022-09-17T21:16:49.068Z,3.73
2022-09-17T21:19:20.133Z,4.40
2022-09-17T21:21:51.593Z,4.30
2022-09-17T21:24:19.677Z,4.03
2022-09-17T21:26:47.688Z,4.00
2022-09-17T21:29:17.944Z,7.27
2022-09-17T21:31:46.281Z,5.23
2022-09-17T21:34:16.218Z,2.33
2022-09-17T21:36:48.075Z,1.87
2022-09-17T21:39:18.169Z,1.47
2022-09-17T21:41:48.098Z,1.90
2022-09-17T21:44:16.894Z,6.10
2022-09-17T21:46:44.999Z,3.60
2022-09-17T21:49:13.869Z,1.13
2022-09-17T21:51:45.128Z,3.20
2022-09-17T21:54:17.045Z,3.83
2022-09-17T21:56:46.276Z,1.37
2022-09-17T21:59:16.906Z,2.50
2022-09-17T22:01:48.073Z,3.23
2022-09-17T22:04:19.551Z,3.90
2022-09-17T22:06:50.634Z,3.53
2022-09-17T22:09:22.790Z,1.67
2022-09-17T22:11:52.283Z,1.63
2022-09-17T22:14:23.033Z,3.37
2022-09-17T22:16:54.042Z,1.80
2022-09-17T22:19:24.519Z,3.57
2022-09-17T22:21:56.767Z,3.10
2022-09-17T22:24:26.349Z,1.83
2022-09-17T22:26:58.398Z,3.70
2022-09-17T22:29:31.317Z,1.80
2022-09-17T22:31:59.541Z,5.57
2022-09-17T22:34:27.578Z,2.07
2022-09-17T22:36:56.931Z,3.03
2022-09-17T22:39:25.053Z,3.00
2022-09-17T22:41:54.457Z,1.27
2022-09-17T22:44:22.461Z,3.27
2022-09-17T22:46:52.712Z,2.57
2022-09-17T22:49:21.081Z,1.47
2022-09-17T22:51:49.200Z,2.53
2022-09-17T22:54:19.665Z,1.23
2022-09-17T22:56:48.925Z,1.33
2022-09-17T22:59:18.080Z,3.10
2022-09-17T23:01:46.223Z,2.53
2022-09-17T23:04:14.391Z,2.73
2022-09-17T23:06:43.006Z,1.23
2022-09-17T23:09:13.261Z,2.60
2022-09-17T23:11:43.400Z,3.07
2022-09-17T23:14:13.914Z,2.50
2022-09-17T23:16:44.724Z,1.90
2022-09-17T23:19:13.092Z,2.10
2022-09-17T23:21:42.304Z,3.50
2022-09-17T23:24:14.417Z,2.57
2022-09-17T23:26:43.788Z,3.20
2022-09-17T23:29:12.088Z,2.03
2022-09-17T23:31:41.210Z,2.97
2022-09-17T23:34:10.700Z,3.37
2022-09-17T23:36:40.206Z,2.80
2022-09-17T23:39:11.384Z,4.73
2022-09-17T23:41:45.379Z,3.80
2022-09-17T23:44:16.039Z,3.03
2022-09-17T23:46:46.493Z,4.03
2022-09-17T23:49:15.766Z,3.93
2022-09-17T23:51:44.151Z,5.67
2022-09-17T23:54:12.504Z,5.23
2022-09-17T23:56:40.579Z,3.33
2022-09-17T23:59:12.286Z,3.60
